Shapleigh, Maine
Current Conditions -  °F | °C
As of 12:15 PM on Sunday 21 Dec 2014 (Local Time) from KSFM Reporting Station
Broken Clouds Broken Clouds  
Wind Chill: 21°   Ceiling: 5000
Heat Index: 28°   Visibility: 10mi
Dew Point: 19°   Wind: 7mph
Humidity: 69%   Direction: 360°N
Pressure: 30.32"   Gusts: NA
Location:  43.54°N, 70.85°W
Report Text: KSFM 211715Z AUTO 36006KT 10SM BKN050 M02/M07 A3032 RMK AO1
Loading
Personal Weather Stations






























Interactive Weather Map New forecast layout! Learn more

10-Day Weather Forecast

Advertisements
Track Severe Weather on mobile